MSC Regina — 3FGF9 — position and weather

sailwx.info

Track history (hours):
 
Tides and Currents Weather Stations Pressure Air Temp Water Temp Dewpoint Dewpoint Depression Visibility Wind Speed Wind Dir Waves Ship Positions

MSC Regina

Last reported at 2017-Mar-30 06:32 UTC. Time now 2017-Mar-30 06:56 UTC.
Position N 43°02' E 007°36'.

Length 259 m; draft 10.3 m.

Type: Ship (hazmat cat A). MMSI: 357331980.

Date/timePositionNaut miles runAvg speedWind from/ knotsBaromVisibWave heightAir tempDewpointWater temp
2017-Mar-30 06:32N 43°02' E 007°36'1919.0
2017-Mar-30 05:33N 43°07' E 008°00'1918.7
2017-Mar-30 04:34N 43°13' E 008°25'1918.6
2017-Mar-30 03:33N 43°18' E 008°49'1918.7
2017-Mar-30 02:33N 43°24' E 009°14'1918.8
2017-Mar-30 01:33N 43°29' E 009°38'1818.3
2017-Mar-30 00:33N 43°30' E 010°04'1110.6
2017-Mar-29 23:33N 43°33' E 010°18'1 1.3
2017-Mar-29 22:30N 43°35' E 010°18'0 0.0
2017-Mar-29 21:33N 43°35' E 010°18'0 0.0
2017-Mar-29 20:30N 43°35' E 010°18'0 0.0
2017-Mar-29 19:33N 43°35' E 010°18'0 0.0
2017-Mar-29 18:33N 43°35' E 010°18'0 0.0
2017-Mar-29 17:33N 43°35' E 010°18'0 0.0
2017-Mar-29 16:33N 43°35' E 010°18'0 0.0
2017-Mar-29 15:33N 43°35' E 010°18'0 0.0
2017-Mar-29 14:33N 43°35' E 010°18'0 0.0
2017-Mar-29 13:33N 43°35' E 010°18'0 0.0
2017-Mar-29 12:33N 43°35' E 010°18'0 0.0
2017-Mar-29 11:33N 43°35' E 010°18'0 0.0
2017-Mar-29 10:33N 43°35' E 010°18'0 0.0
2017-Mar-29 09:27N 43°35' E 010°18'0 0.0
2017-Mar-29 08:30N 43°35' E 010°18'0 0.0
2017-Mar-29 07:30N 43°35' E 010°18'3 3.5
2017-Mar-29 06:33N 43°32' E 010°16'5 5.4
2017-Mar-29 05:33N 43°30' E 010°09'1212.3
2017-Mar-29 04:33N 43°31' E 009°52'1212.1
2017-Mar-29 03:33N 43°38' E 009°39'1312.8
2017-Mar-29 02:33N 43°48' E 009°27'1312.9
2017-Mar-29 01:33N 43°57' E 009°15'1312.9
2017-Mar-29 00:33N 44°06' E 009°02'1313.3
2017-Mar-28 23:33N 44°16' E 008°50'9 9.4
2017-Mar-28 22:33N 44°25' E 008°46'1 1.2
2017-Mar-28 21:33N 44°25' E 008°48'0 0.0
2017-Mar-28 20:33N 44°25' E 008°48'0 0.0
2017-Mar-28 19:31N 44°25' E 008°48'0 0.0
2017-Mar-28 18:27N 44°25' E 008°48'0 0.0
2017-Mar-28 17:33N 44°25' E 008°48'0 0.0
2017-Mar-28 16:33N 44°25' E 008°48'0 0.0
2017-Mar-28 15:33N 44°25' E 008°48'0 0.0
2017-Mar-28 14:30N 44°25' E 008°48'0 0.0
2017-Mar-28 13:33N 44°25' E 008°48'0 0.0
2017-Mar-28 12:33N 44°25' E 008°48'0 0.0
2017-Mar-28 11:33N 44°25' E 008°48'0 0.0
2017-Mar-28 10:33N 44°25' E 008°48'0 0.0
2017-Mar-28 09:33N 44°25' E 008°48'0 0.0
2017-Mar-28 08:33N 44°25' E 008°48'0 0.0
2017-Mar-28 07:33N 44°25' E 008°48'0 0.1
2017-Mar-28 06:33N 44°25' E 008°48'5 5.1
2017-Mar-28 05:34N 44°21' E 008°43'2 1.6
2017-Mar-28 04:33N 44°20' E 008°44'2 2.3
2017-Mar-28 03:33N 44°18' E 008°46'9 9.0
2017-Mar-28 02:33N 44°11' E 008°54'10 9.9
2017-Mar-28 01:33N 44°05' E 009°04'1110.5
2017-Mar-28 00:33N 43°57' E 009°14'1010.4
2017-Mar-27 23:33N 43°49' E 009°24'1010.1
2017-Mar-27 22:33N 43°41' E 009°32'5 4.8
2017-Mar-27 21:33N 43°37' E 009°37'1 0.9
2017-Mar-27 20:33N 43°37' E 009°37'1 0.5
2017-Mar-27 19:33N 43°36' E 009°37'0 0.1
2017-Mar-27 18:33N 43°36' E 009°37'0 0.4
2017-Mar-27 17:33N 43°36' E 009°37'1 0.6
2017-Mar-27 16:33N 43°36' E 009°36'0 0.5
2017-Mar-27 15:33N 43°36' E 009°35'0 0.4
2017-Mar-27 14:33N 43°35' E 009°35'0 0.4
2017-Mar-27 13:33N 43°35' E 009°35'0 0.1
2017-Mar-27 12:33N 43°35' E 009°35'0 0.4
2017-Mar-27 11:33N 43°35' E 009°34'4 4.3
2017-Mar-27 10:33N 43°33' E 009°39'1211.7
2017-Mar-27 09:33N 43°31' E 009°55'1010.0
2017-Mar-27 08:33N 43°25' E 010°06'1 1.4
2017-Mar-27 07:33N 43°25' E 010°07'2 1.9
2017-Mar-27 06:33N 43°27' E 010°09'2 1.7
2017-Mar-27 05:33N 43°28' E 010°10'1 0.6
2017-Mar-27 04:33N 43°28' E 010°11'7 7.1
2017-Mar-27 03:33N 43°23' E 010°04'8 8.3
2017-Mar-27 02:33N 43°17' E 009°56'8 7.9
2017-Mar-27 01:33N 43°12' E 009°48'8 8.2
2017-Mar-27 00:33N 43°06' E 009°40'289 8.6
2017-Mar-25 15:04N 39°38' E 014°08'5214.3
2017-Mar-25 11:26N 39°05' E 014°59'1516.8
2017-Mar-25 10:33N 38°55' E 015°14'1716.5
2017-Mar-25 09:29N 38°43' E 015°30'1516.2
2017-Mar-25 08:34N 38°33' E 015°44'9 9.4
2017-Mar-25 07:33N 38°28' E 015°54'0 0.3
2017-Mar-25 06:31N 38°28' E 015°55'0 0.0
2017-Mar-25 05:31N 38°28' E 015°55'0 0.0
2017-Mar-25 04:31N 38°28' E 015°55'0 0.0
2017-Mar-25 03:31N 38°28' E 015°55'0 0.0
2017-Mar-25 02:31N 38°28' E 015°55'0 0.0
2017-Mar-25 01:31N 38°28' E 015°55'0 0.0
2017-Mar-25 00:31N 38°28' E 015°55'0 0.0
2017-Mar-24 23:31N 38°28' E 015°55'0 0.0
2017-Mar-24 22:31N 38°28' E 015°55'0 0.0
2017-Mar-24 21:31N 38°28' E 015°55'0 0.0
2017-Mar-24 20:31N 38°28' E 015°55'0 0.0
2017-Mar-24 19:31N 38°28' E 015°55'0 0.0
2017-Mar-24 18:31N 38°28' E 015°55'0 0.0
2017-Mar-24 17:31N 38°28' E 015°55'0 0.0
2017-Mar-24 16:31N 38°28' E 015°55'0 0.0
2017-Mar-24 15:31N 38°28' E 015°55'0 0.0
2017-Mar-24 14:28N 38°28' E 015°55'0 0.0
2017-Mar-24 13:31N 38°28' E 015°55'0 0.0
2017-Mar-24 12:31N 38°28' E 015°55'0 0.0
2017-Mar-24 11:31N 38°28' E 015°55'0 0.0
2017-Mar-24 10:31N 38°28' E 015°55'0 0.0
2017-Mar-24 09:31N 38°28' E 015°55'0 0.0
2017-Mar-24 08:31N 38°28' E 015°55'0 0.0
2017-Mar-24 07:31N 38°28' E 015°55'0 0.0
2017-Mar-24 06:31N 38°28' E 015°55'0 0.0
2017-Mar-24 05:31N 38°28' E 015°55'0 0.0
2017-Mar-24 04:31N 38°28' E 015°55'0 0.0
2017-Mar-24 03:31N 38°28' E 015°55'0 0.0
2017-Mar-24 02:33N 38°28' E 015°55'4 4.0
2017-Mar-24 01:33N 38°27' E 015°50'1010.0
2017-Mar-24 00:33N 38°25' E 015°37'1818.2
2017-Mar-23 23:33N 38°20' E 015°14'1918.9
2017-Mar-23 22:33N 38°18' E 014°51'1918.6
2017-Mar-23 21:31N 38°19' E 014°26'9318.7
2017-Mar-23 16:33N 38°15' E 012°28'2019.5
2017-Mar-23 15:33N 38°12' E 012°03'  
2017-Mar-21 08:18N 35°60' W 005°15'1317.2
2017-Mar-21 07:33N 35°57' W 005°30'  
Track history (hours):
 
Tides and Currents Weather Stations Pressure Air Temp Water Temp Dewpoint Dewpoint Depression Visibility Wind Speed Wind Dir Waves Ship Positions

MSC Regina

Last reported at 2017-Mar-30 06:32 UTC. Time now 2017-Mar-30 06:56 UTC.
Position N 43°02' E 007°36'.

Length 259 m; draft 10.3 m.

Type: Ship (hazmat cat A). MMSI: 357331980.

Date/timePositionNaut miles runAvg speedWind from/ knotsBaromVisibWave heightAir tempDewpointWater temp
2017-Mar-30 06:32N 43°02' E 007°36'1919.0
2017-Mar-30 05:33N 43°07' E 008°00'1918.7
2017-Mar-30 04:34N 43°13' E 008°25'1918.6
2017-Mar-30 03:33N 43°18' E 008°49'1918.7
2017-Mar-30 02:33N 43°24' E 009°14'1918.8
2017-Mar-30 01:33N 43°29' E 009°38'1818.3
2017-Mar-30 00:33N 43°30' E 010°04'1110.6
2017-Mar-29 23:33N 43°33' E 010°18'1 1.3
2017-Mar-29 22:30N 43°35' E 010°18'0 0.0
2017-Mar-29 21:33N 43°35' E 010°18'0 0.0
2017-Mar-29 20:30N 43°35' E 010°18'0 0.0
2017-Mar-29 19:33N 43°35' E 010°18'0 0.0
2017-Mar-29 18:33N 43°35' E 010°18'0 0.0
2017-Mar-29 17:33N 43°35' E 010°18'0 0.0
2017-Mar-29 16:33N 43°35' E 010°18'0 0.0
2017-Mar-29 15:33N 43°35' E 010°18'0 0.0
2017-Mar-29 14:33N 43°35' E 010°18'0 0.0
2017-Mar-29 13:33N 43°35' E 010°18'0 0.0
2017-Mar-29 12:33N 43°35' E 010°18'0 0.0
2017-Mar-29 11:33N 43°35' E 010°18'0 0.0
2017-Mar-29 10:33N 43°35' E 010°18'0 0.0
2017-Mar-29 09:27N 43°35' E 010°18'0 0.0
2017-Mar-29 08:30N 43°35' E 010°18'0 0.0
2017-Mar-29 07:30N 43°35' E 010°18'3 3.5
2017-Mar-29 06:33N 43°32' E 010°16'5 5.4
2017-Mar-29 05:33N 43°30' E 010°09'1212.3
2017-Mar-29 04:33N 43°31' E 009°52'1212.1
2017-Mar-29 03:33N 43°38' E 009°39'1312.8
2017-Mar-29 02:33N 43°48' E 009°27'1312.9
2017-Mar-29 01:33N 43°57' E 009°15'1312.9
2017-Mar-29 00:33N 44°06' E 009°02'1313.3
2017-Mar-28 23:33N 44°16' E 008°50'9 9.4
2017-Mar-28 22:33N 44°25' E 008°46'1 1.2
2017-Mar-28 21:33N 44°25' E 008°48'0 0.0
2017-Mar-28 20:33N 44°25' E 008°48'0 0.0
2017-Mar-28 19:31N 44°25' E 008°48'0 0.0
2017-Mar-28 18:27N 44°25' E 008°48'0 0.0
2017-Mar-28 17:33N 44°25' E 008°48'0 0.0
2017-Mar-28 16:33N 44°25' E 008°48'0 0.0
2017-Mar-28 15:33N 44°25' E 008°48'0 0.0
2017-Mar-28 14:30N 44°25' E 008°48'0 0.0
2017-Mar-28 13:33N 44°25' E 008°48'0 0.0
2017-Mar-28 12:33N 44°25' E 008°48'0 0.0
2017-Mar-28 11:33N 44°25' E 008°48'0 0.0
2017-Mar-28 10:33N 44°25' E 008°48'0 0.0
2017-Mar-28 09:33N 44°25' E 008°48'0 0.0
2017-Mar-28 08:33N 44°25' E 008°48'0 0.0
2017-Mar-28 07:33N 44°25' E 008°48'0 0.1
2017-Mar-28 06:33N 44°25' E 008°48'5 5.1
2017-Mar-28 05:34N 44°21' E 008°43'2 1.6
2017-Mar-28 04:33N 44°20' E 008°44'2 2.3
2017-Mar-28 03:33N 44°18' E 008°46'9 9.0
2017-Mar-28 02:33N 44°11' E 008°54'10 9.9
2017-Mar-28 01:33N 44°05' E 009°04'1110.5
2017-Mar-28 00:33N 43°57' E 009°14'1010.4
2017-Mar-27 23:33N 43°49' E 009°24'1010.1
2017-Mar-27 22:33N 43°41' E 009°32'5 4.8
2017-Mar-27 21:33N 43°37' E 009°37'1 0.9
2017-Mar-27 20:33N 43°37' E 009°37'1 0.5
2017-Mar-27 19:33N 43°36' E 009°37'0 0.1
2017-Mar-27 18:33N 43°36' E 009°37'0 0.4
2017-Mar-27 17:33N 43°36' E 009°37'1 0.6
2017-Mar-27 16:33N 43°36' E 009°36'0 0.5
2017-Mar-27 15:33N 43°36' E 009°35'0 0.4
2017-Mar-27 14:33N 43°35' E 009°35'0 0.4
2017-Mar-27 13:33N 43°35' E 009°35'0 0.1
2017-Mar-27 12:33N 43°35' E 009°35'0 0.4
2017-Mar-27 11:33N 43°35' E 009°34'4 4.3
2017-Mar-27 10:33N 43°33' E 009°39'1211.7
2017-Mar-27 09:33N 43°31' E 009°55'1010.0
2017-Mar-27 08:33N 43°25' E 010°06'1 1.4
2017-Mar-27 07:33N 43°25' E 010°07'2 1.9
2017-Mar-27 06:33N 43°27' E 010°09'2 1.7
2017-Mar-27 05:33N 43°28' E 010°10'1 0.6
2017-Mar-27 04:33N 43°28' E 010°11'7 7.1
2017-Mar-27 03:33N 43°23' E 010°04'8 8.3
2017-Mar-27 02:33N 43°17' E 009°56'8 7.9
2017-Mar-27 01:33N 43°12' E 009°48'8 8.2
2017-Mar-27 00:33N 43°06' E 009°40'289 8.6
2017-Mar-25 15:04N 39°38' E 014°08'5214.3
2017-Mar-25 11:26N 39°05' E 014°59'1516.8
2017-Mar-25 10:33N 38°55' E 015°14'1716.5
2017-Mar-25 09:29N 38°43' E 015°30'1516.2
2017-Mar-25 08:34N 38°33' E 015°44'9 9.4
2017-Mar-25 07:33N 38°28' E 015°54'0 0.3
2017-Mar-25 06:31N 38°28' E 015°55'0 0.0
2017-Mar-25 05:31N 38°28' E 015°55'0 0.0
2017-Mar-25 04:31N 38°28' E 015°55'0 0.0
2017-Mar-25 03:31N 38°28' E 015°55'0 0.0
2017-Mar-25 02:31N 38°28' E 015°55'0 0.0
2017-Mar-25 01:31N 38°28' E 015°55'0 0.0
2017-Mar-25 00:31N 38°28' E 015°55'0 0.0
2017-Mar-24 23:31N 38°28' E 015°55'0 0.0
2017-Mar-24 22:31N 38°28' E 015°55'0 0.0
2017-Mar-24 21:31N 38°28' E 015°55'0 0.0
2017-Mar-24 20:31N 38°28' E 015°55'0 0.0
2017-Mar-24 19:31N 38°28' E 015°55'0 0.0
2017-Mar-24 18:31N 38°28' E 015°55'0 0.0
2017-Mar-24 17:31N 38°28' E 015°55'0 0.0
2017-Mar-24 16:31N 38°28' E 015°55'0 0.0
2017-Mar-24 15:31N 38°28' E 015°55'0 0.0
2017-Mar-24 14:28N 38°28' E 015°55'0 0.0
2017-Mar-24 13:31N 38°28' E 015°55'0 0.0
2017-Mar-24 12:31N 38°28' E 015°55'0 0.0
2017-Mar-24 11:31N 38°28' E 015°55'0 0.0
2017-Mar-24 10:31N 38°28' E 015°55'0 0.0
2017-Mar-24 09:31N 38°28' E 015°55'0 0.0
2017-Mar-24 08:31N 38°28' E 015°55'0 0.0
2017-Mar-24 07:31N 38°28' E 015°55'0 0.0
2017-Mar-24 06:31N 38°28' E 015°55'0 0.0
2017-Mar-24 05:31N 38°28' E 015°55'0 0.0
2017-Mar-24 04:31N 38°28' E 015°55'0 0.0
2017-Mar-24 03:31N 38°28' E 015°55'0 0.0
2017-Mar-24 02:33N 38°28' E 015°55'4 4.0
2017-Mar-24 01:33N 38°27' E 015°50'1010.0
2017-Mar-24 00:33N 38°25' E 015°37'1818.2
2017-Mar-23 23:33N 38°20' E 015°14'1918.9
2017-Mar-23 22:33N 38°18' E 014°51'1918.6
2017-Mar-23 21:31N 38°19' E 014°26'9318.7
2017-Mar-23 16:33N 38°15' E 012°28'2019.5
2017-Mar-23 15:33N 38°12' E 012°03'  
2017-Mar-21 08:18N 35°60' W 005°15'1317.2
2017-Mar-21 07:33N 35°57' W 005°30'  

Dump ship's entire track history